createdAt,value
2022-09-07T00:00:48.004Z,4.25
2022-09-07T00:03:16.241Z,4.18
2022-09-07T00:05:45.221Z,4.12
2022-09-07T00:08:13.198Z,4.37
2022-09-07T00:10:41.150Z,5.10
2022-09-07T00:13:09.712Z,5.37
2022-09-07T00:15:40.669Z,4.57
2022-09-07T00:18:08.841Z,4.82
2022-09-07T00:20:36.663Z,5.07
2022-09-07T00:23:04.478Z,5.32
2022-09-07T00:25:42.693Z,6.07
2022-09-07T00:28:10.695Z,5.30
2022-09-07T00:30:42.266Z,5.95
2022-09-07T00:33:10.625Z,6.28
2022-09-07T00:38:55.222Z,6.60
2022-09-07T00:41:23.488Z,6.68
2022-09-07T00:43:53.558Z,6.60
2022-09-07T00:46:23.793Z,7.00
2022-09-07T00:49:12.219Z,6.47
2022-09-07T00:51:45.178Z,7.07
2022-09-07T00:54:16.279Z,6.40
2022-09-07T00:56:44.480Z,8.90
2022-09-07T00:59:13.173Z,10.30
2022-09-07T01:01:41.151Z,13.90
2022-09-07T01:04:09.053Z,13.73
2022-09-07T01:06:38.062Z,13.95
2022-09-07T01:09:08.089Z,13.15
2022-09-07T01:11:36.234Z,10.57
2022-09-07T01:14:05.173Z,10.75
2022-09-07T01:17:03.043Z,10.95
2022-09-07T01:19:50.481Z,11.07
2022-09-07T01:22:34.025Z,6.62
2022-09-07T01:25:14.847Z,8.23
2022-09-07T01:27:59.039Z,6.85
2022-09-07T01:30:27.206Z,6.00
2022-09-07T01:33:00.861Z,5.65
2022-09-07T01:35:46.770Z,6.20
2022-09-07T01:38:20.074Z,6.50
2022-09-07T01:40:48.021Z,6.00
2022-09-07T01:43:36.924Z,5.40
2022-09-07T01:46:05.607Z,5.53
2022-09-07T01:48:33.719Z,6.15
2022-09-07T01:51:03.929Z,5.40
2022-09-07T01:53:43.248Z,6.03
2022-09-07T01:56:11.125Z,5.53
2022-09-07T01:59:02.326Z,5.93
2022-09-07T02:01:34.620Z,6.18
2022-09-07T02:04:06.539Z,6.07
2022-09-07T02:06:37.217Z,6.03
2022-09-07T02:09:08.101Z,5.75
2022-09-07T02:11:41.713Z,6.50
2022-09-07T02:14:30.696Z,5.53
2022-09-07T02:17:02.682Z,5.57
2022-09-07T02:19:35.624Z,6.12
2022-09-07T02:22:10.133Z,5.82
2022-09-07T02:24:41.179Z,5.75
2022-09-07T02:27:13.470Z,6.32
2022-09-07T02:29:45.937Z,5.87
2022-09-07T02:32:14.032Z,6.10
2022-09-07T02:34:42.086Z,6.45
2022-09-07T02:37:10.395Z,6.32
2022-09-07T02:39:38.890Z,6.25
2022-09-07T02:42:07.042Z,5.72
2022-09-07T02:44:37.065Z,5.20
2022-09-07T02:47:13.927Z,6.03
2022-09-07T02:49:56.718Z,5.60
2022-09-07T02:52:36.997Z,5.12
2022-09-07T02:55:29.359Z,5.30
2022-09-07T02:58:38.777Z,5.72
2022-09-07T03:01:28.183Z,5.22
2022-09-07T03:04:27.022Z,5.35
2022-09-07T03:07:19.302Z,4.57
2022-09-07T03:09:51.459Z,4.93
2022-09-07T03:12:19.500Z,4.72
2022-09-07T03:14:47.494Z,5.25
2022-09-07T03:17:15.840Z,4.95
2022-09-07T03:19:43.778Z,5.20
2022-09-07T03:22:11.778Z,5.40
2022-09-07T03:24:44.239Z,4.32
2022-09-07T03:27:12.662Z,3.30
2022-09-07T03:29:42.179Z,4.60
2022-09-07T03:32:10.179Z,4.22
2022-09-07T03:34:38.158Z,5.90
2022-09-07T03:37:06.182Z,5.47
2022-09-07T03:39:34.261Z,5.95
2022-09-07T03:42:02.232Z,4.85
2022-09-07T03:44:30.317Z,5.85
2022-09-07T03:46:58.484Z,4.90
2022-09-07T03:49:26.428Z,6.15
2022-09-07T03:51:54.478Z,5.15
2022-09-07T03:54:22.507Z,5.62
2022-09-07T03:56:50.496Z,5.82
2022-09-07T03:59:18.354Z,5.55
2022-09-07T04:01:46.794Z,6.10
2022-09-07T04:04:14.924Z,6.82
2022-09-07T04:06:42.926Z,6.18
2022-09-07T04:09:13.494Z,7.03
2022-09-07T04:11:44.516Z,7.15
2022-09-07T04:14:19.056Z,7.68
2022-09-07T04:16:50.123Z,6.53
2022-09-07T04:19:18.602Z,6.72
2022-09-07T04:21:48.334Z,7.07
2022-09-07T04:24:16.691Z,6.03
2022-09-07T04:26:45.083Z,6.28
2022-09-07T04:29:13.436Z,6.18
2022-09-07T04:31:46.171Z,6.68
2022-09-07T04:34:16.853Z,5.75
2022-09-07T04:36:45.157Z,6.57
2022-09-07T04:39:13.472Z,7.10
2022-09-07T04:41:41.416Z,7.35
2022-09-07T04:44:17.106Z,7.28
2022-09-07T04:46:45.226Z,7.12
2022-09-07T04:49:13.530Z,7.22
2022-09-07T04:51:43.830Z,7.40
2022-09-07T04:54:11.964Z,6.05
2022-09-07T04:56:39.938Z,7.75
2022-09-07T04:59:08.122Z,7.87
2022-09-07T05:01:36.652Z,6.97
2022-09-07T05:04:05.098Z,7.32
2022-09-07T05:06:38.021Z,6.85
2022-09-07T05:09:06.003Z,6.72
2022-09-07T05:11:39.365Z,7.65
2022-09-07T05:14:07.224Z,7.53
2022-09-07T05:16:35.279Z,8.23
2022-09-07T05:19:04.444Z,8.30
2022-09-07T05:21:34.173Z,7.97
2022-09-07T05:24:06.891Z,7.65
2022-09-07T05:26:37.372Z,7.87
2022-09-07T05:31:58.439Z,8.13
2022-09-07T05:34:29.775Z,7.40
2022-09-07T05:36:58.334Z,7.03
2022-09-07T05:39:26.247Z,7.25
2022-09-07T05:41:54.150Z,6.90
2022-09-07T05:47:10.094Z,7.85
2022-09-07T05:49:38.738Z,7.55
2022-09-07T05:52:06.970Z,8.35
2022-09-07T05:54:34.832Z,8.95
2022-09-07T05:57:04.594Z,8.02
2022-09-07T05:59:32.401Z,8.73
2022-09-07T06:02:00.820Z,8.55
2022-09-07T06:04:28.727Z,7.03
2022-09-07T06:07:20.505Z,8.23
2022-09-07T06:12:37.164Z,8.68
2022-09-07T06:15:07.294Z,8.85
2022-09-07T06:17:35.414Z,8.25
2022-09-07T06:20:04.071Z,8.48
2022-09-07T06:22:31.870Z,8.95
2022-09-07T06:24:59.980Z,8.70
2022-09-07T06:27:28.044Z,8.18
2022-09-07T06:30:00.574Z,8.73
2022-09-07T06:32:44.213Z,7.47
2022-09-07T06:35:12.675Z,8.07
2022-09-07T06:37:40.580Z,7.70
2022-09-07T06:40:09.550Z,7.18
2022-09-07T06:42:37.702Z,6.37
2022-09-07T06:45:06.268Z,6.55
2022-09-07T06:47:34.020Z,5.97
2022-09-07T06:50:16.176Z,5.85
2022-09-07T06:55:32.081Z,5.57
2022-09-07T06:58:00.023Z,5.50
2022-09-07T07:00:32.597Z,5.93
2022-09-07T07:03:00.573Z,5.47
2022-09-07T07:05:28.501Z,4.18
2022-09-07T07:07:57.563Z,3.97
2022-09-07T07:10:25.851Z,3.67
2022-09-07T07:12:58.542Z,3.72
2022-09-07T07:15:27.851Z,3.45
2022-09-07T07:18:00.283Z,3.20
2022-09-07T07:20:36.351Z,4.43
2022-09-07T07:23:04.444Z,3.10
2022-09-07T07:25:32.279Z,3.22
2022-09-07T07:30:48.033Z,3.47
2022-09-07T07:33:15.900Z,3.15
2022-09-07T07:35:43.765Z,13.80
2022-09-07T07:43:47.395Z,3.42
2022-09-07T07:46:18.581Z,2.92
2022-09-07T07:48:48.946Z,2.80
2022-09-07T07:51:16.882Z,2.50
2022-09-07T07:53:45.313Z,5.82
2022-09-07T07:56:13.469Z,3.35
2022-09-07T07:58:41.599Z,3.10
2022-09-07T08:01:11.821Z,2.78
2022-09-07T08:03:40.979Z,2.92
2022-09-07T08:06:10.200Z,2.90
2022-09-07T08:08:38.428Z,3.00
2022-09-07T08:11:09.372Z,6.00
2022-09-07T08:13:37.855Z,3.83
2022-09-07T08:16:06.681Z,3.50
2022-09-07T08:18:35.152Z,3.05
2022-09-07T08:21:04.165Z,3.75
2022-09-07T08:23:32.834Z,3.80
2022-09-07T08:26:01.051Z,5.10
2022-09-07T08:28:30.080Z,5.20
2022-09-07T08:30:58.549Z,5.43
2022-09-07T08:33:26.438Z,21.98
2022-09-07T08:36:01.728Z,6.78
2022-09-07T08:38:32.967Z,26.48
2022-09-07T08:41:01.284Z,5.50
2022-09-07T08:43:39.623Z,6.12
2022-09-07T08:46:30.766Z,9.82
2022-09-07T08:48:58.587Z,5.95
2022-09-07T08:51:37.187Z,5.18
2022-09-07T08:54:05.475Z,5.75
2022-09-07T08:56:37.931Z,5.70
2022-09-07T08:59:26.228Z,5.20
2022-09-07T09:07:40.057Z,5.30
2022-09-07T09:10:17.449Z,5.07
2022-09-07T09:12:56.983Z,4.68
2022-09-07T09:15:33.310Z,4.75
2022-09-07T09:18:46.025Z,4.35
2022-09-07T09:21:18.599Z,3.78
2022-09-07T09:23:48.669Z,3.15
2022-09-07T09:26:19.484Z,2.42
2022-09-07T09:28:47.226Z,2.33
2022-09-07T09:31:22.199Z,2.45
2022-09-07T09:34:15.424Z,2.20
2022-09-07T09:36:56.894Z,2.17
2022-09-07T09:39:31.562Z,2.75
2022-09-07T09:42:01.548Z,3.42
2022-09-07T09:44:33.161Z,1.90
2022-09-07T09:49:48.949Z,2.10
2022-09-07T09:52:43.411Z,1.77
2022-09-07T10:01:24.248Z,13.77
2022-09-07T10:06:25.534Z,2.28
2022-09-07T10:08:57.591Z,2.25
2022-09-07T10:14:36.544Z,2.85
2022-09-07T10:17:12.934Z,2.50
2022-09-07T10:19:42.286Z,3.00
2022-09-07T10:22:36.213Z,2.90
2022-09-07T10:25:06.180Z,2.10
2022-09-07T10:27:39.796Z,2.25
2022-09-07T10:30:17.494Z,2.12
2022-09-07T10:32:47.994Z,2.00
2022-09-07T10:35:30.934Z,2.10
2022-09-07T10:38:15.104Z,2.55
2022-09-07T10:40:54.004Z,2.15
2022-09-07T10:43:27.749Z,2.15
2022-09-07T10:46:04.358Z,2.03
2022-09-07T10:48:57.610Z,2.30
2022-09-07T10:51:55.217Z,2.00
2022-09-07T10:54:33.004Z,1.95
2022-09-07T10:57:05.257Z,1.90
2022-09-07T11:00:11.328Z,2.12
2022-09-07T11:03:24.893Z,2.08
2022-09-07T11:05:51.117Z,2.00
2022-09-07T11:14:23.390Z,1.70
2022-09-07T11:17:02.609Z,1.77
2022-09-07T11:19:35.433Z,1.80
2022-09-07T11:22:35.077Z,1.50
2022-09-07T11:25:33.288Z,1.90
2022-09-07T11:28:03.460Z,2.22
2022-09-07T11:30:36.292Z,1.90
2022-09-07T11:33:04.086Z,2.00
2022-09-07T11:35:47.015Z,1.62
2022-09-07T11:38:26.626Z,1.90
2022-09-07T11:41:00.836Z,1.92
2022-09-07T11:43:31.659Z,2.22
2022-09-07T11:46:09.030Z,2.03
2022-09-07T11:48:52.088Z,2.10
2022-09-07T11:51:31.413Z,2.45
2022-09-07T11:54:02.449Z,2.17
2022-09-07T11:56:45.803Z,2.10
2022-09-07T11:59:36.163Z,1.83
2022-09-07T12:02:17.710Z,1.87
2022-09-07T12:05:07.623Z,1.90
2022-09-07T12:07:41.403Z,2.40
2022-09-07T12:10:30.741Z,2.10
2022-09-07T12:13:17.007Z,1.98
2022-09-07T12:16:05.441Z,2.42
2022-09-07T12:19:14.820Z,2.10
2022-09-07T12:21:44.068Z,2.45
2022-09-07T12:24:30.164Z,2.00
2022-09-07T12:26:57.945Z,2.30
2022-09-07T12:29:26.798Z,2.60
2022-09-07T12:31:59.685Z,2.30
2022-09-07T12:34:34.721Z,2.83
2022-09-07T12:37:12.267Z,2.37
2022-09-07T12:39:44.632Z,2.70
2022-09-07T12:42:37.166Z,1.85
2022-09-07T12:45:30.335Z,2.12
2022-09-07T12:47:58.867Z,2.37
2022-09-07T12:50:30.695Z,2.00
2022-09-07T12:53:37.499Z,1.95
2022-09-07T12:56:46.659Z,2.92
2022-09-07T12:59:36.306Z,2.58
2022-09-07T13:05:09.557Z,2.70
2022-09-07T13:07:47.234Z,2.03
2022-09-07T13:10:39.451Z,1.95
2022-09-07T13:13:08.868Z,2.25
2022-09-07T13:15:41.651Z,1.95
2022-09-07T13:18:30.532Z,1.92
2022-09-07T13:21:10.294Z,2.35
2022-09-07T13:23:40.059Z,1.80
2022-09-07T13:26:09.770Z,1.85
2022-09-07T13:28:40.159Z,1.67
2022-09-07T13:31:29.858Z,2.37
2022-09-07T13:33:58.300Z,2.20
2022-09-07T13:36:48.913Z,2.35
2022-09-07T13:39:17.317Z,1.83
2022-09-07T13:41:49.411Z,1.85
2022-09-07T13:44:26.843Z,2.05
2022-09-07T13:47:14.849Z,1.92
2022-09-07T13:50:13.502Z,1.77
2022-09-07T13:52:48.361Z,1.77
2022-09-07T13:55:22.618Z,1.77
2022-09-07T13:58:14.908Z,2.33
2022-09-07T14:01:07.144Z,1.65
2022-09-07T14:04:00.939Z,1.70
2022-09-07T14:06:31.496Z,1.87
2022-09-07T14:09:00.399Z,1.42
2022-09-07T14:11:41.008Z,1.83
2022-09-07T14:14:09.634Z,2.33
2022-09-07T14:16:37.566Z,1.60
2022-09-07T14:19:20.934Z,1.92
2022-09-07T14:22:01.936Z,1.58
2022-09-07T14:24:34.888Z,1.60
2022-09-07T14:27:02.734Z,1.58
2022-09-07T14:29:32.411Z,1.50
2022-09-07T14:32:01.402Z,1.45
2022-09-07T14:34:41.034Z,1.15
2022-09-07T14:37:09.799Z,1.40
2022-09-07T14:39:40.350Z,1.10
2022-09-07T14:42:08.514Z,1.35
2022-09-07T14:44:44.210Z,1.10
2022-09-07T14:47:37.870Z,1.12
2022-09-07T14:50:07.012Z,1.33
2022-09-07T14:52:43.691Z,1.20
2022-09-07T14:55:40.603Z,1.00
2022-09-07T14:58:14.339Z,1.05
2022-09-07T15:00:46.799Z,1.17
2022-09-07T15:03:30.819Z,1.20
2022-09-07T15:06:02.246Z,0.90
2022-09-07T15:08:46.458Z,0.95
2022-09-07T15:11:34.633Z,1.00
2022-09-07T15:14:12.316Z,1.12
2022-09-07T15:16:45.006Z,1.12
2022-09-07T15:19:19.692Z,0.93
2022-09-07T15:21:47.614Z,1.17
2022-09-07T15:24:16.538Z,0.85
2022-09-07T15:27:03.943Z,0.80
2022-09-07T15:29:32.513Z,0.70
2022-09-07T15:32:05.124Z,0.82
2022-09-07T15:34:36.174Z,0.68
2022-09-07T15:38:00.325Z,0.68
2022-09-07T15:39:52.960Z,0.80
2022-09-07T15:45:09.537Z,0.80
2022-09-07T15:47:50.611Z,0.93
2022-09-07T15:50:19.077Z,0.90
2022-09-07T15:52:46.949Z,1.17
2022-09-07T15:55:17.663Z,0.90
2022-09-07T15:57:51.216Z,1.20
2022-09-07T16:00:20.814Z,0.95
2022-09-07T16:03:06.907Z,0.90
2022-09-07T16:05:35.456Z,0.90
2022-09-07T16:10:55.801Z,1.20
2022-09-07T16:13:25.115Z,1.37
2022-09-07T16:15:52.939Z,1.05
2022-09-07T16:18:20.777Z,1.23
2022-09-07T16:20:52.733Z,1.23
2022-09-07T16:23:20.588Z,1.30
2022-09-07T16:26:01.765Z,1.35
2022-09-07T16:28:29.811Z,1.17
2022-09-07T16:30:58.022Z,1.42
2022-09-07T16:33:33.163Z,1.80
2022-09-07T16:36:09.546Z,1.30
2022-09-07T16:38:45.086Z,1.25
2022-09-07T16:41:17.572Z,1.40
2022-09-07T16:43:50.017Z,1.25
2022-09-07T16:46:22.615Z,1.25
2022-09-07T16:48:51.279Z,1.30
2022-09-07T16:51:23.774Z,1.40
2022-09-07T16:53:52.877Z,1.23
2022-09-07T16:56:22.237Z,1.52
2022-09-07T16:58:52.247Z,1.30
2022-09-07T17:01:26.452Z,1.62
2022-09-07T17:03:54.454Z,1.08
2022-09-07T17:06:26.484Z,1.62
2022-09-07T17:08:54.300Z,2.00
2022-09-07T17:11:24.043Z,1.90
2022-09-07T17:13:52.548Z,2.00
2022-09-07T17:16:22.139Z,1.50
2022-09-07T17:21:43.236Z,1.58
2022-09-07T17:24:11.443Z,1.75
2022-09-07T17:26:41.872Z,1.80
2022-09-07T17:29:10.434Z,1.60
2022-09-07T17:34:26.805Z,1.85
2022-09-07T17:37:01.166Z,1.90
2022-09-07T17:39:29.694Z,1.87
2022-09-07T17:41:57.528Z,2.47
2022-09-07T17:44:25.408Z,1.90
2022-09-07T17:46:53.143Z,1.73
2022-09-07T17:49:21.045Z,1.90
2022-09-07T17:51:51.288Z,1.70
2022-09-07T17:54:19.254Z,1.60
2022-09-07T17:56:47.078Z,1.50
2022-09-07T18:02:02.688Z,1.25
2022-09-07T18:04:30.508Z,1.50
2022-09-07T18:07:03.721Z,1.20
2022-09-07T18:09:31.470Z,1.65
2022-09-07T18:11:59.286Z,1.30
2022-09-07T18:14:33.343Z,1.00
2022-09-07T18:17:16.032Z,1.25
2022-09-07T18:19:43.972Z,1.45
2022-09-07T18:22:11.820Z,1.45
2022-09-07T18:24:46.276Z,1.37
2022-09-07T18:27:13.971Z,1.40
2022-09-07T18:29:41.879Z,1.37
2022-09-07T18:32:10.364Z,1.27
2022-09-07T18:34:41.260Z,1.35
2022-09-07T18:37:09.401Z,1.60
2022-09-07T18:39:37.644Z,1.87
2022-09-07T18:42:05.523Z,1.58
2022-09-07T18:47:28.420Z,1.77
2022-09-07T18:49:56.966Z,1.42
2022-09-07T18:55:12.902Z,1.40
2022-09-07T18:57:40.652Z,1.10
2022-09-07T19:00:09.294Z,1.40
2022-09-07T19:02:37.193Z,1.30
2022-09-07T19:07:52.974Z,1.65
2022-09-07T19:10:20.829Z,1.65
2022-09-07T19:12:48.613Z,1.60
2022-09-07T19:15:16.356Z,1.40
2022-09-07T19:17:44.220Z,1.50
2022-09-07T19:20:11.959Z,1.15
2022-09-07T19:22:40.153Z,1.92
2022-09-07T19:25:08.179Z,1.50
2022-09-07T19:27:36.122Z,1.60
2022-09-07T19:30:04.303Z,1.62
2022-09-07T19:32:32.117Z,1.90
2022-09-07T19:34:59.970Z,1.95
2022-09-07T19:37:30.130Z,1.40
2022-09-07T19:39:57.980Z,1.40
2022-09-07T19:42:27.107Z,1.20
2022-09-07T19:44:55.258Z,0.90
2022-09-07T19:47:27.647Z,0.73
2022-09-07T19:49:55.495Z,0.82
2022-09-07T19:52:23.199Z,0.70
2022-09-07T19:54:50.926Z,0.70
2022-09-07T19:57:18.691Z,0.80
2022-09-07T19:59:46.763Z,0.75
2022-09-07T20:02:14.542Z,0.75
2022-09-07T20:04:42.382Z,0.82
2022-09-07T20:07:10.147Z,1.15
2022-09-07T20:09:38.045Z,1.58
2022-09-07T20:12:07.932Z,1.00
2022-09-07T20:14:35.609Z,1.15
2022-09-07T20:17:03.564Z,1.00
2022-09-07T20:19:31.371Z,1.02
2022-09-07T20:22:04.957Z,0.85
2022-09-07T20:24:32.679Z,0.77
2022-09-07T20:27:00.432Z,0.62
2022-09-07T20:29:29.050Z,0.62
2022-09-07T20:32:00.833Z,0.70
2022-09-07T20:34:28.936Z,1.00
2022-09-07T20:36:57.155Z,0.68
2022-09-07T20:39:25.309Z,0.60
2022-09-07T20:41:53.064Z,0.88
2022-09-07T20:44:21.204Z,1.00
2022-09-07T20:46:55.016Z,0.80
2022-09-07T20:49:23.204Z,0.90
2022-09-07T20:51:51.073Z,1.00
2022-09-07T20:54:18.826Z,0.80
2022-09-07T20:56:46.531Z,0.88
2022-09-07T20:59:14.452Z,0.90
2022-09-07T21:01:42.231Z,0.90
2022-09-07T21:04:10.087Z,0.90
2022-09-07T21:06:37.898Z,0.65
2022-09-07T21:09:05.612Z,0.80
2022-09-07T21:11:34.778Z,0.90
2022-09-07T21:14:11.394Z,0.90
2022-09-07T21:16:39.376Z,1.23
2022-09-07T21:19:08.708Z,1.10
2022-09-07T21:21:39.107Z,0.70
2022-09-07T21:24:07.714Z,0.70
2022-09-07T21:26:35.580Z,0.90
2022-09-07T21:29:04.781Z,1.00
2022-09-07T21:31:35.548Z,0.80
2022-09-07T21:34:03.393Z,0.93
2022-09-07T21:36:31.553Z,0.70
2022-09-07T21:38:59.538Z,0.80
2022-09-07T21:41:27.357Z,0.80
2022-09-07T21:43:58.579Z,1.17
2022-09-07T21:46:26.722Z,0.82
2022-09-07T21:48:55.945Z,0.80
2022-09-07T21:51:23.953Z,0.85
2022-09-07T21:53:55.557Z,0.80
2022-09-07T21:56:23.567Z,0.95
2022-09-07T21:58:58.479Z,1.17
2022-09-07T22:01:27.371Z,0.90
2022-09-07T22:03:57.172Z,0.77
2022-09-07T22:06:25.382Z,2.65
2022-09-07T22:08:53.246Z,1.00
2022-09-07T22:11:22.212Z,1.50
2022-09-07T22:13:50.126Z,0.77
2022-09-07T22:16:17.972Z,1.02
2022-09-07T22:18:46.455Z,0.80
2022-09-07T22:21:16.288Z,0.90
2022-09-07T22:23:46.606Z,0.80
2022-09-07T22:26:14.868Z,0.90
2022-09-07T22:28:42.753Z,0.90
2022-09-07T22:31:15.579Z,0.93
2022-09-07T22:33:43.713Z,0.70
2022-09-07T22:36:14.985Z,0.90
2022-09-07T22:38:43.545Z,0.82
2022-09-07T22:41:15.318Z,0.82
2022-09-07T22:43:43.793Z,1.02
2022-09-07T22:46:12.119Z,1.30
2022-09-07T22:48:40.536Z,1.48
2022-09-07T22:51:08.811Z,1.27
2022-09-07T22:53:37.767Z,0.80
2022-09-07T22:56:15.614Z,1.17
2022-09-07T22:58:47.870Z,1.08
2022-09-07T23:01:15.872Z,0.90
2022-09-07T23:03:44.273Z,0.90
2022-09-07T23:06:31.758Z,1.20
2022-09-07T23:09:00.565Z,1.40
2022-09-07T23:11:28.365Z,1.02
2022-09-07T23:13:57.834Z,0.98
2022-09-07T23:16:26.163Z,0.90
2022-09-07T23:18:54.182Z,1.92
2022-09-07T23:21:22.323Z,1.40
2022-09-07T23:23:57.088Z,0.90
2022-09-07T23:26:25.653Z,1.52
2022-09-07T23:28:54.160Z,2.20
2022-09-07T23:31:22.453Z,1.05
2022-09-07T23:33:50.759Z,1.80
2022-09-07T23:36:18.715Z,1.42
2022-09-07T23:38:46.941Z,0.70
2022-09-07T23:41:15.534Z,1.12
2022-09-07T23:43:43.611Z,1.10
2022-09-07T23:46:12.347Z,2.10
2022-09-07T23:48:40.375Z,2.83
2022-09-07T23:51:08.275Z,3.17
2022-09-07T23:53:36.243Z,1.60
2022-09-07T23:56:04.346Z,1.60
2022-09-07T23:58:32.203Z,1.50
